createdAt,value
2023-05-11T00:00:25.440Z,21.97
2023-05-11T00:01:25.480Z,21.97
2023-05-11T00:02:25.589Z,21.97
2023-05-11T00:03:25.851Z,21.96
2023-05-11T00:04:25.546Z,21.96
2023-05-11T00:05:25.570Z,21.96
2023-05-11T00:06:25.596Z,21.96
2023-05-11T00:07:25.854Z,21.95
2023-05-11T00:08:25.734Z,21.95
2023-05-11T00:09:25.680Z,21.96
2023-05-11T00:10:25.727Z,21.95
2023-05-11T00:11:25.791Z,21.95
2023-05-11T00:12:25.809Z,21.95
2023-05-11T00:13:25.805Z,21.96
2023-05-11T00:14:25.889Z,21.94
2023-05-11T00:15:25.837Z,21.94
2023-05-11T00:16:26.041Z,21.95
2023-05-11T00:17:25.887Z,21.94
2023-05-11T00:18:26.047Z,21.94
2023-05-11T00:19:26.224Z,21.94
2023-05-11T00:20:25.954Z,21.94
2023-05-11T00:21:25.960Z,21.94
2023-05-11T00:22:25.981Z,21.94
2023-05-11T00:23:26.015Z,21.94
2023-05-11T00:24:26.225Z,21.94
2023-05-11T00:25:26.056Z,21.94
2023-05-11T00:26:26.071Z,21.94
2023-05-11T00:27:26.113Z,21.93
2023-05-11T00:28:26.159Z,21.94
2023-05-11T00:29:26.139Z,21.93
2023-05-11T00:30:26.226Z,21.94
2023-05-11T00:31:28.059Z,21.93
2023-05-11T00:32:26.239Z,21.93
2023-05-11T00:33:26.300Z,21.92
2023-05-11T00:34:26.200Z,21.93
2023-05-11T00:35:26.191Z,21.93
2023-05-11T00:36:26.192Z,21.93
2023-05-11T00:37:26.370Z,21.93
2023-05-11T00:38:26.169Z,21.93
2023-05-11T00:39:26.134Z,21.92
2023-05-11T00:40:26.134Z,21.92
2023-05-11T00:41:26.143Z,21.92
2023-05-11T00:42:26.126Z,21.92
2023-05-11T00:43:26.176Z,21.92
2023-05-11T00:44:26.110Z,21.92
2023-05-11T00:45:26.129Z,21.91
2023-05-11T00:46:26.282Z,21.91
2023-05-11T00:47:26.164Z,21.91
2023-05-11T00:48:26.119Z,21.91
2023-05-11T00:49:26.210Z,21.91
2023-05-11T00:50:26.094Z,21.92
2023-05-11T00:51:26.075Z,21.91
2023-05-11T00:52:26.066Z,21.91
2023-05-11T00:53:26.066Z,21.91
2023-05-11T00:54:26.078Z,21.90
2023-05-11T00:55:26.012Z,21.91
2023-05-11T00:56:26.024Z,21.91
2023-05-11T00:57:26.064Z,21.90
2023-05-11T00:58:26.030Z,21.90
2023-05-11T00:59:26.048Z,21.91
2023-05-11T01:00:26.024Z,21.90
2023-05-11T01:01:26.060Z,21.91
2023-05-11T01:02:26.091Z,21.90
2023-05-11T01:03:26.046Z,21.89
2023-05-11T01:04:26.000Z,21.89
2023-05-11T01:05:25.967Z,21.90
2023-05-11T01:06:26.701Z,21.90
2023-05-11T01:07:25.928Z,21.90
2023-05-11T01:08:25.941Z,21.89
2023-05-11T01:09:25.954Z,21.89
2023-05-11T01:10:25.942Z,21.90
2023-05-11T01:11:25.950Z,21.89
2023-05-11T01:12:25.918Z,21.90
2023-05-11T01:13:25.917Z,21.90
2023-05-11T01:14:25.930Z,21.89
2023-05-11T01:15:25.920Z,21.89
2023-05-11T01:16:25.917Z,21.89
2023-05-11T01:17:25.905Z,21.89
2023-05-11T01:18:25.991Z,21.89
2023-05-11T01:19:25.901Z,21.89
2023-05-11T01:20:25.886Z,21.88
2023-05-11T01:21:25.873Z,21.88
2023-05-11T01:22:25.861Z,21.88
2023-05-11T01:23:25.869Z,21.88
2023-05-11T01:24:26.208Z,21.87
2023-05-11T01:25:25.849Z,21.88
2023-05-11T01:26:25.837Z,21.87
2023-05-11T01:27:25.829Z,21.87
2023-05-11T01:28:25.854Z,21.87
2023-05-11T01:29:25.815Z,21.87
2023-05-11T01:30:25.834Z,21.87
2023-05-11T01:31:25.787Z,21.88
2023-05-11T01:32:25.802Z,21.86
2023-05-11T01:33:25.799Z,21.87
2023-05-11T01:34:25.851Z,21.87
2023-05-11T01:35:25.898Z,21.86
2023-05-11T01:36:25.915Z,21.87
2023-05-11T01:37:25.893Z,21.87
2023-05-11T01:38:25.957Z,21.87
2023-05-11T01:39:25.981Z,21.86
2023-05-11T01:40:26.005Z,21.87
2023-05-11T01:41:26.021Z,21.86
2023-05-11T01:42:26.069Z,21.87
2023-05-11T01:43:26.071Z,21.86
2023-05-11T01:44:26.268Z,21.86
2023-05-11T01:45:26.161Z,21.86
2023-05-11T01:46:26.185Z,21.86
2023-05-11T01:47:26.281Z,21.86
2023-05-11T01:48:26.270Z,21.86
2023-05-11T01:49:26.289Z,21.86
2023-05-11T01:50:26.343Z,21.86
2023-05-11T01:51:26.375Z,21.85
2023-05-11T01:52:26.376Z,21.85
2023-05-11T01:53:26.411Z,21.86
2023-05-11T01:54:26.471Z,21.85
2023-05-11T01:55:26.526Z,21.86
2023-05-11T01:56:26.554Z,21.85
2023-05-11T01:57:26.547Z,21.85
2023-05-11T01:58:26.626Z,21.85
2023-05-11T01:59:26.728Z,21.84
2023-05-11T02:00:26.644Z,21.85
2023-05-11T02:01:26.776Z,21.84
2023-05-11T02:02:26.763Z,21.84
2023-05-11T02:03:26.827Z,21.84
2023-05-11T02:04:26.796Z,21.84
2023-05-11T02:05:26.812Z,21.83
2023-05-11T02:06:26.821Z,21.84
2023-05-11T02:07:26.850Z,21.83
2023-05-11T02:08:26.974Z,21.84
2023-05-11T02:09:26.946Z,21.84
2023-05-11T02:10:27.030Z,21.84
2023-05-11T02:11:27.054Z,21.83
2023-05-11T02:12:27.114Z,21.83
2023-05-11T02:13:27.080Z,21.83
2023-05-11T02:14:27.279Z,21.83
2023-05-11T02:15:27.150Z,21.83
2023-05-11T02:16:27.254Z,21.83
2023-05-11T02:17:27.184Z,21.83
2023-05-11T02:18:27.305Z,21.83
2023-05-11T02:19:27.287Z,21.83
2023-05-11T02:20:27.289Z,21.83
2023-05-11T02:21:27.326Z,21.82
2023-05-11T02:22:27.359Z,21.83
2023-05-11T02:23:27.410Z,21.82
2023-05-11T02:24:27.769Z,21.82
2023-05-11T02:25:27.475Z,21.82
2023-05-11T02:26:27.511Z,21.82
2023-05-11T02:27:27.544Z,21.82
2023-05-11T02:28:27.549Z,21.82
2023-05-11T02:29:27.598Z,21.81
2023-05-11T02:30:27.617Z,21.81
2023-05-11T02:31:27.693Z,21.82
2023-05-11T02:32:27.725Z,21.81
2023-05-11T02:33:27.732Z,21.81
2023-05-11T02:34:27.766Z,21.81
2023-05-11T02:35:27.813Z,21.81
2023-05-11T02:36:27.827Z,21.81
2023-05-11T02:37:27.845Z,21.81
2023-05-11T02:38:27.889Z,21.81
2023-05-11T02:39:27.929Z,21.81
2023-05-11T02:40:27.951Z,21.80
2023-05-11T02:41:27.983Z,21.81
2023-05-11T02:42:28.024Z,21.80
2023-05-11T02:43:28.086Z,21.80
2023-05-11T02:44:28.094Z,21.80
2023-05-11T02:45:28.152Z,21.79
2023-05-11T02:46:28.235Z,21.80
2023-05-11T02:47:28.228Z,21.80
2023-05-11T02:48:28.251Z,21.79
2023-05-11T02:49:28.762Z,21.79
2023-05-11T02:50:28.309Z,21.79
2023-05-11T02:51:28.362Z,21.78
2023-05-11T02:52:28.386Z,21.79
2023-05-11T02:53:28.412Z,21.79
2023-05-11T02:54:28.445Z,21.79
2023-05-11T02:55:28.482Z,21.78
2023-05-11T02:56:28.526Z,21.79
2023-05-11T02:57:28.581Z,21.79
2023-05-11T02:58:28.586Z,21.79
2023-05-11T02:59:28.606Z,21.78
2023-05-11T03:00:28.812Z,21.78
2023-05-11T03:01:30.623Z,21.78
2023-05-11T03:02:28.840Z,21.79
2023-05-11T03:03:28.833Z,21.78
2023-05-11T03:04:29.269Z,21.77
2023-05-11T03:05:28.830Z,21.78
2023-05-11T03:06:28.905Z,21.78
2023-05-11T03:07:28.920Z,21.78
2023-05-11T03:08:29.740Z,21.78
2023-05-11T03:09:29.268Z,21.77
2023-05-11T03:10:28.990Z,21.78
2023-05-11T03:11:29.062Z,21.77
2023-05-11T03:12:29.083Z,21.77
2023-05-11T03:13:29.121Z,21.77
2023-05-11T03:14:29.149Z,21.76
2023-05-11T03:15:29.196Z,21.76
2023-05-11T03:16:29.289Z,21.76
2023-05-11T03:17:29.283Z,21.76
2023-05-11T03:18:29.338Z,21.77
2023-05-11T03:19:29.345Z,21.76
2023-05-11T03:20:29.390Z,21.76
2023-05-11T03:21:29.457Z,21.76
2023-05-11T03:22:29.474Z,21.76
2023-05-11T03:23:29.516Z,21.76
2023-05-11T03:24:29.585Z,21.76
2023-05-11T03:25:29.590Z,21.76
2023-05-11T03:26:29.649Z,21.77
2023-05-11T03:27:29.712Z,21.77
2023-05-11T03:28:29.718Z,21.76
2023-05-11T03:29:29.751Z,21.76
2023-05-11T03:30:29.800Z,21.76
2023-05-11T03:31:29.832Z,21.76
2023-05-11T03:32:29.911Z,21.76
2023-05-11T03:33:29.942Z,21.75
2023-05-11T03:34:29.961Z,21.76
2023-05-11T03:35:29.961Z,21.75
2023-05-11T03:36:30.005Z,21.75
2023-05-11T03:37:30.040Z,21.75
2023-05-11T03:38:30.119Z,21.75
2023-05-11T03:39:30.176Z,21.75
2023-05-11T03:40:30.174Z,21.75
2023-05-11T03:41:30.248Z,21.75
2023-05-11T03:42:30.306Z,21.75
2023-05-11T03:43:30.344Z,21.74
2023-05-11T03:44:30.373Z,21.74
2023-05-11T03:45:30.414Z,21.74
2023-05-11T03:46:30.531Z,21.74
2023-05-11T03:47:30.509Z,21.74
2023-05-11T03:48:30.526Z,21.73
2023-05-11T03:49:30.568Z,21.73
2023-05-11T03:50:30.641Z,21.73
2023-05-11T03:51:30.672Z,21.73
2023-05-11T03:52:30.707Z,21.74
2023-05-11T03:53:30.766Z,21.73
2023-05-11T03:54:30.811Z,21.73
2023-05-11T03:55:30.822Z,21.73
2023-05-11T03:56:30.885Z,21.74
2023-05-11T03:57:30.938Z,21.73
2023-05-11T03:58:30.972Z,21.73
2023-05-11T03:59:31.279Z,21.74
2023-05-11T04:00:31.041Z,21.74
2023-05-11T04:01:31.057Z,21.72
2023-05-11T04:02:31.155Z,21.72
2023-05-11T04:03:31.334Z,21.73
2023-05-11T04:04:31.308Z,21.72
2023-05-11T04:05:31.241Z,21.72
2023-05-11T04:06:31.273Z,21.72
2023-05-11T04:07:31.337Z,21.72
2023-05-11T04:08:31.353Z,21.73
2023-05-11T04:09:31.794Z,21.72
2023-05-11T04:10:31.457Z,21.72
2023-05-11T04:11:31.488Z,21.72
2023-05-11T04:12:31.517Z,21.72
2023-05-11T04:13:31.556Z,21.72
2023-05-11T04:14:31.621Z,21.71
2023-05-11T04:15:31.639Z,21.71
2023-05-11T04:16:31.701Z,21.71
2023-05-11T04:17:31.755Z,21.71
2023-05-11T04:18:31.822Z,21.71
2023-05-11T04:19:31.809Z,21.71
2023-05-11T04:20:31.855Z,21.70
2023-05-11T04:21:31.920Z,21.71
2023-05-11T04:22:31.923Z,21.70
2023-05-11T04:23:31.971Z,21.70
2023-05-11T04:24:32.314Z,21.71
2023-05-11T04:25:32.101Z,21.69
2023-05-11T04:26:32.121Z,21.70
2023-05-11T04:27:32.182Z,21.70
2023-05-11T04:28:32.213Z,21.70
2023-05-11T04:29:32.224Z,21.70
2023-05-11T04:30:32.281Z,21.70
2023-05-11T04:31:32.398Z,21.70
2023-05-11T04:32:32.354Z,21.70
2023-05-11T04:33:32.378Z,21.70
2023-05-11T04:34:32.429Z,21.70
2023-05-11T04:35:32.458Z,21.69
2023-05-11T04:36:32.548Z,21.69
2023-05-11T04:37:32.554Z,21.69
2023-05-11T04:38:32.582Z,21.70
2023-05-11T04:39:32.671Z,21.70
2023-05-11T04:41:32.720Z,21.69
2023-05-11T04:42:32.743Z,21.69
2023-05-11T04:43:32.814Z,21.69
2023-05-11T04:44:32.840Z,21.69
2023-05-11T04:45:33.319Z,21.69
2023-05-11T04:46:32.982Z,21.69
2023-05-11T04:47:33.049Z,21.69
2023-05-11T04:48:33.109Z,21.68
2023-05-11T04:49:33.074Z,21.68
2023-05-11T04:50:33.158Z,21.69
2023-05-11T04:51:33.143Z,21.68
2023-05-11T04:52:33.197Z,21.68
2023-05-11T04:53:33.261Z,21.69
2023-05-11T04:54:33.285Z,21.68
2023-05-11T04:55:33.339Z,21.67
2023-05-11T04:56:33.389Z,21.68
2023-05-11T04:57:33.433Z,21.68
2023-05-11T04:58:33.514Z,21.68
2023-05-11T04:59:33.517Z,21.68
2023-05-11T05:00:33.786Z,21.67
2023-05-11T05:01:33.672Z,21.65
2023-05-11T05:02:33.680Z,21.58
2023-05-11T05:03:33.666Z,21.50
2023-05-11T05:04:36.258Z,21.40
2023-05-11T05:05:33.820Z,21.32
2023-05-11T05:06:33.620Z,21.23
2023-05-11T05:07:33.650Z,21.14
2023-05-11T05:08:33.664Z,21.08
2023-05-11T05:09:33.618Z,21.01
2023-05-11T05:10:33.645Z,20.98
2023-05-11T05:11:33.589Z,20.94
2023-05-11T05:12:33.614Z,20.91
2023-05-11T05:13:33.601Z,20.90
2023-05-11T05:14:33.620Z,20.89
2023-05-11T05:15:33.616Z,20.90
2023-05-11T05:16:33.633Z,20.90
2023-05-11T05:17:33.675Z,20.91
2023-05-11T05:18:33.744Z,20.92
2023-05-11T05:19:33.560Z,20.92
2023-05-11T05:20:33.811Z,20.93
2023-05-11T05:21:33.571Z,20.93
2023-05-11T05:22:33.558Z,20.94
2023-05-11T05:23:33.551Z,20.95
2023-05-11T05:24:33.525Z,20.96
2023-05-11T05:25:33.794Z,20.97
2023-05-11T05:26:33.539Z,20.98
2023-05-11T05:27:34.969Z,20.97
2023-05-11T05:28:33.530Z,20.98
2023-05-11T05:29:33.522Z,20.99
2023-05-11T05:30:33.846Z,20.99
2023-05-11T05:31:33.562Z,20.99
2023-05-11T05:32:33.496Z,21.00
2023-05-11T05:33:33.466Z,21.00
2023-05-11T05:34:33.471Z,21.00
2023-05-11T05:35:33.817Z,20.99
2023-05-11T05:36:33.490Z,20.98
2023-05-11T05:37:33.471Z,20.99
2023-05-11T05:38:33.437Z,20.99
2023-05-11T05:39:33.429Z,20.99
2023-05-11T05:40:33.820Z,21.00
2023-05-11T05:41:33.458Z,21.01
2023-05-11T05:42:33.504Z,21.02
2023-05-11T05:43:33.524Z,21.04
2023-05-11T05:44:33.538Z,21.05
2023-05-11T05:45:33.614Z,21.06
2023-05-11T05:46:33.790Z,21.06
2023-05-11T05:47:33.672Z,21.11
2023-05-11T05:48:33.674Z,21.17
2023-05-11T05:49:33.737Z,21.24
2023-05-11T05:50:33.874Z,21.31
2023-05-11T05:51:33.810Z,21.41
2023-05-11T05:52:33.802Z,21.49
2023-05-11T05:53:33.842Z,21.54
2023-05-11T05:54:33.841Z,21.60
2023-05-11T05:55:34.329Z,21.64
2023-05-11T05:56:33.907Z,21.70
2023-05-11T05:57:33.965Z,21.75
2023-05-11T05:58:34.043Z,21.80
2023-05-11T05:59:34.061Z,21.84
2023-05-11T06:00:34.298Z,21.87
2023-05-11T06:01:34.115Z,21.90
2023-05-11T06:02:34.212Z,21.90
2023-05-11T06:03:34.401Z,21.91
2023-05-11T06:04:34.320Z,21.93
2023-05-11T06:05:34.315Z,21.96
2023-05-11T06:06:34.291Z,21.99
2023-05-11T06:07:34.348Z,22.02
2023-05-11T06:08:34.372Z,22.05
2023-05-11T06:09:34.364Z,22.09
2023-05-11T06:10:34.826Z,22.12
2023-05-11T06:11:34.376Z,22.13
2023-05-11T06:12:34.399Z,22.15
2023-05-11T06:13:34.438Z,22.18
2023-05-11T06:14:34.451Z,22.21
2023-05-11T06:15:34.861Z,22.25
2023-05-11T06:16:34.592Z,22.29
2023-05-11T06:17:34.526Z,22.31
2023-05-11T06:18:34.576Z,22.34
2023-05-11T06:19:34.582Z,22.36
2023-05-11T06:20:34.846Z,22.36
2023-05-11T06:21:34.664Z,22.38
2023-05-11T06:22:34.725Z,22.40
2023-05-11T06:23:34.759Z,22.41
2023-05-11T06:24:34.819Z,22.43
2023-05-11T06:25:35.333Z,22.44
2023-05-11T06:26:34.935Z,22.45
2023-05-11T06:27:34.986Z,22.47
2023-05-11T06:28:35.052Z,22.48
2023-05-11T06:29:35.090Z,22.50
2023-05-11T06:30:35.324Z,22.50
2023-05-11T06:31:35.184Z,22.53
2023-05-11T06:32:35.255Z,22.53
2023-05-11T06:33:42.246Z,22.55
2023-05-11T06:34:35.218Z,22.55
2023-05-11T06:35:35.348Z,22.57
2023-05-11T06:36:35.207Z,22.58
2023-05-11T06:37:35.224Z,22.58
2023-05-11T06:38:35.191Z,22.59
2023-05-11T06:39:35.196Z,22.58
2023-05-11T06:40:35.340Z,22.59
2023-05-11T06:41:35.201Z,22.59
2023-05-11T06:42:35.208Z,22.59
2023-05-11T06:43:35.191Z,22.58
2023-05-11T06:44:35.167Z,22.57
2023-05-11T06:45:35.172Z,22.57
2023-05-11T06:46:35.169Z,22.58
2023-05-11T06:47:35.158Z,22.59
2023-05-11T06:48:35.139Z,22.62
2023-05-11T06:49:35.137Z,22.63
2023-05-11T06:50:35.128Z,22.65
2023-05-11T06:51:35.110Z,22.67
2023-05-11T06:52:35.087Z,22.67
2023-05-11T06:53:35.130Z,22.64
2023-05-11T06:54:35.124Z,22.64
2023-05-11T06:55:35.101Z,22.67
2023-05-11T06:56:35.097Z,22.66
2023-05-11T06:57:35.080Z,22.64
2023-05-11T06:58:35.102Z,22.61
2023-05-11T06:59:35.063Z,22.64
2023-05-11T07:00:35.371Z,22.66
2023-05-11T07:01:35.127Z,22.69
2023-05-11T07:02:35.075Z,22.72
2023-05-11T07:03:35.024Z,22.74
2023-05-11T07:04:35.066Z,22.77
2023-05-11T07:05:35.354Z,22.80
2023-05-11T07:06:35.002Z,22.82
2023-05-11T07:07:34.978Z,22.85
2023-05-11T07:08:35.025Z,22.88
2023-05-11T07:09:35.004Z,22.90
2023-05-11T07:10:35.343Z,22.93
2023-05-11T07:11:35.033Z,22.95
2023-05-11T07:12:35.067Z,22.95
2023-05-11T07:13:35.069Z,22.96
2023-05-11T07:14:35.079Z,22.98
2023-05-11T07:15:35.362Z,23.00
2023-05-11T07:16:35.167Z,23.01
2023-05-11T07:17:35.180Z,23.03
2023-05-11T07:18:35.244Z,23.04
2023-05-11T07:19:35.197Z,23.05
2023-05-11T07:20:35.354Z,23.06
2023-05-11T07:21:35.258Z,23.07
2023-05-11T07:22:35.283Z,23.08
2023-05-11T07:23:35.274Z,23.09
2023-05-11T07:24:35.292Z,23.10
2023-05-11T07:25:35.396Z,23.10
2023-05-11T07:26:35.342Z,23.12
2023-05-11T07:27:35.389Z,23.12
2023-05-11T07:28:35.447Z,23.13
2023-05-11T07:29:35.475Z,23.13
2023-05-11T07:30:35.986Z,23.15
2023-05-11T07:31:35.548Z,23.16
2023-05-11T07:32:35.638Z,23.17
2023-05-11T07:33:35.679Z,23.17
2023-05-11T07:34:35.715Z,23.18
2023-05-11T07:35:35.759Z,23.20
2023-05-11T07:36:35.861Z,23.21
2023-05-11T07:37:35.840Z,23.20
2023-05-11T07:38:35.891Z,23.21
2023-05-11T07:39:35.919Z,23.22
2023-05-11T07:40:36.004Z,23.23
2023-05-11T07:41:36.341Z,23.23
2023-05-11T07:42:36.075Z,23.23
2023-05-11T07:43:36.145Z,23.25
2023-05-11T07:44:36.165Z,23.25
2023-05-11T07:45:36.197Z,23.25
2023-05-11T07:46:36.405Z,23.23
2023-05-11T07:47:37.032Z,23.21
2023-05-11T07:48:36.362Z,23.21
2023-05-11T07:49:43.399Z,23.22
2023-05-11T07:50:37.400Z,23.23
2023-05-11T07:51:36.388Z,23.27
2023-05-11T07:52:36.344Z,23.30
2023-05-11T07:53:36.371Z,23.31
2023-05-11T07:54:36.339Z,23.32
2023-05-11T07:55:36.371Z,23.33
2023-05-11T07:56:36.351Z,23.36
2023-05-11T07:57:36.303Z,23.38
2023-05-11T07:58:36.333Z,23.39
2023-05-11T07:59:36.300Z,23.40
2023-05-11T08:00:36.318Z,23.43
2023-05-11T08:01:36.282Z,23.45
2023-05-11T08:02:36.365Z,23.47
2023-05-11T08:03:36.389Z,23.46
2023-05-11T08:04:36.382Z,23.48
2023-05-11T08:05:36.496Z,23.50
2023-05-11T08:06:36.477Z,23.52
2023-05-11T08:07:37.460Z,23.54
2023-05-11T08:08:36.617Z,23.57
2023-05-11T08:09:36.635Z,23.58
2023-05-11T08:10:36.653Z,23.58
2023-05-11T08:11:36.685Z,23.59
2023-05-11T08:12:36.762Z,23.54
2023-05-11T08:13:36.803Z,23.37
2023-05-11T08:14:36.772Z,23.18
2023-05-11T08:15:36.816Z,23.11
2023-05-11T08:16:36.957Z,23.07
2023-05-11T08:17:36.940Z,23.07
2023-05-11T08:18:36.913Z,23.09
2023-05-11T08:19:36.875Z,23.11
2023-05-11T08:20:36.939Z,23.12
2023-05-11T08:21:36.968Z,23.14
2023-05-11T08:22:36.970Z,23.18
2023-05-11T08:23:36.994Z,23.21
2023-05-11T08:24:36.981Z,23.24
2023-05-11T08:25:37.040Z,23.25
2023-05-11T08:26:37.901Z,23.27
2023-05-11T08:27:37.060Z,23.30
2023-05-11T08:28:37.078Z,23.32
2023-05-11T08:29:37.166Z,23.34
2023-05-11T08:30:37.197Z,23.36
2023-05-11T08:31:37.294Z,23.37
2023-05-11T08:32:46.589Z,23.39
2023-05-11T08:33:38.969Z,23.40
2023-05-11T08:34:37.419Z,23.40
2023-05-11T08:35:37.267Z,23.41
2023-05-11T08:36:37.387Z,23.43
2023-05-11T08:37:37.253Z,23.43
2023-05-11T08:38:37.286Z,23.44
2023-05-11T08:39:46.696Z,23.44
2023-05-11T08:40:38.257Z,23.44
2023-05-11T08:41:37.261Z,23.38
2023-05-11T08:42:37.236Z,23.21
2023-05-11T08:43:37.229Z,23.08
2023-05-11T08:44:37.239Z,22.99
2023-05-11T08:45:38.256Z,22.90
2023-05-11T08:46:37.202Z,22.81
2023-05-11T08:47:37.228Z,22.71
2023-05-11T08:48:37.196Z,22.57
2023-05-11T08:49:37.191Z,22.42
2023-05-11T08:50:37.162Z,22.28
2023-05-11T08:51:37.426Z,22.21
2023-05-11T08:52:37.141Z,22.25
2023-05-11T08:53:37.160Z,22.25
2023-05-11T08:54:37.245Z,22.22
2023-05-11T08:55:37.241Z,22.22
2023-05-11T08:56:37.417Z,22.22
2023-05-11T08:57:37.319Z,22.23
2023-05-11T08:58:37.375Z,22.27
2023-05-11T08:59:37.348Z,22.32
2023-05-11T09:00:37.389Z,22.34
2023-05-11T09:01:37.924Z,22.37
2023-05-11T09:02:37.453Z,22.37
2023-05-11T09:03:37.458Z,22.38
2023-05-11T09:04:37.462Z,22.38
2023-05-11T09:05:37.526Z,22.40
2023-05-11T09:06:38.405Z,22.44
2023-05-11T09:07:37.555Z,22.47
2023-05-11T09:08:37.594Z,22.50
2023-05-11T09:09:37.635Z,22.53
2023-05-11T09:10:37.681Z,22.57
2023-05-11T09:11:37.721Z,22.58
2023-05-11T09:12:37.750Z,22.59
2023-05-11T09:13:37.830Z,22.59
2023-05-11T09:14:38.398Z,22.59
2023-05-11T09:15:38.435Z,22.58
2023-05-11T09:16:38.469Z,22.58
2023-05-11T09:17:38.036Z,22.56
2023-05-11T09:18:38.049Z,22.56
2023-05-11T09:19:38.079Z,22.54
2023-05-11T09:20:38.125Z,22.54
2023-05-11T09:21:38.415Z,22.53
2023-05-11T09:22:38.226Z,22.51
2023-05-11T09:23:38.315Z,22.49
2023-05-11T09:24:38.372Z,22.48
2023-05-11T09:25:38.402Z,22.47
2023-05-11T09:26:38.444Z,22.46
2023-05-11T09:27:39.417Z,22.44
2023-05-11T09:28:46.003Z,22.43
2023-05-11T09:29:39.582Z,22.41
2023-05-11T09:30:38.589Z,22.39
2023-05-11T09:31:39.000Z,22.38
2023-05-11T09:32:38.608Z,22.36
2023-05-11T09:33:38.559Z,22.35
2023-05-11T09:35:38.528Z,22.32
2023-05-11T09:36:38.914Z,22.31
2023-05-11T09:37:38.563Z,22.30
2023-05-11T09:38:38.537Z,22.29
2023-05-11T09:39:44.126Z,22.28
2023-05-11T09:40:39.529Z,22.27
2023-05-11T09:41:38.928Z,22.25
2023-05-11T09:42:38.512Z,22.25
2023-05-11T09:43:38.495Z,22.24
2023-05-11T09:44:38.484Z,22.24
2023-05-11T09:45:38.473Z,22.23
2023-05-11T09:46:38.936Z,22.22
2023-05-11T09:47:38.514Z,22.21
2023-05-11T09:48:38.460Z,22.19
2023-05-11T09:49:38.431Z,22.14
2023-05-11T09:50:38.429Z,22.02
2023-05-11T09:51:38.945Z,21.87
2023-05-11T09:52:38.444Z,21.76
2023-05-11T09:53:38.444Z,21.67
2023-05-11T09:54:38.406Z,21.60
2023-05-11T09:55:38.410Z,21.53
2023-05-11T09:56:38.407Z,21.48
2023-05-11T09:57:38.390Z,21.43
2023-05-11T09:58:38.390Z,21.39
2023-05-11T09:59:38.432Z,21.34
2023-05-11T10:00:38.406Z,21.32
2023-05-11T10:01:38.589Z,21.27
2023-05-11T10:02:38.538Z,21.10
2023-05-11T10:03:38.625Z,20.83
2023-05-11T10:04:38.573Z,20.54
2023-05-11T10:05:38.616Z,20.30
2023-05-11T10:06:38.674Z,20.20
2023-05-11T10:07:38.700Z,20.18
2023-05-11T10:08:38.727Z,20.14
2023-05-11T10:09:38.787Z,20.10
2023-05-11T10:10:38.791Z,20.11
2023-05-11T10:11:38.826Z,20.11
2023-05-11T10:12:38.868Z,20.05
2023-05-11T10:13:38.876Z,19.95
2023-05-11T10:14:38.950Z,19.84
2023-05-11T10:15:38.932Z,19.69
2023-05-11T10:16:39.467Z,19.52
2023-05-11T10:17:39.042Z,19.34
2023-05-11T10:18:39.064Z,19.25
2023-05-11T10:19:39.047Z,19.17
2023-05-11T10:20:39.059Z,19.10
2023-05-11T10:21:39.058Z,19.04
2023-05-11T10:22:39.505Z,19.00
2023-05-11T10:23:39.097Z,18.95
2023-05-11T10:24:39.169Z,18.87
2023-05-11T10:25:39.162Z,18.78
2023-05-11T10:26:39.229Z,18.66
2023-05-11T10:27:39.424Z,18.53
2023-05-11T10:28:39.262Z,18.41
2023-05-11T10:29:39.284Z,18.29
2023-05-11T10:30:39.319Z,18.15
2023-05-11T10:31:39.383Z,18.04
2023-05-11T10:32:39.468Z,17.93
2023-05-11T10:33:39.422Z,17.86
2023-05-11T10:34:39.481Z,17.91
2023-05-11T10:35:39.500Z,18.02
2023-05-11T10:36:39.519Z,18.16
2023-05-11T10:37:39.929Z,18.32
2023-05-11T10:38:39.563Z,18.49
2023-05-11T10:39:39.596Z,18.63
2023-05-11T10:40:39.673Z,18.78
2023-05-11T10:41:39.654Z,18.94
2023-05-11T10:42:39.929Z,19.07
2023-05-11T10:43:39.717Z,19.20
2023-05-11T10:44:39.776Z,19.32
2023-05-11T10:45:39.844Z,19.43
2023-05-11T10:46:39.777Z,19.54
2023-05-11T10:47:39.946Z,19.64
2023-05-11T10:48:39.854Z,19.72
2023-05-11T10:49:39.932Z,19.81
2023-05-11T10:50:42.969Z,19.89
2023-05-11T10:51:39.906Z,19.95
2023-05-11T10:52:39.921Z,20.02
2023-05-11T10:53:39.857Z,20.07
2023-05-11T10:54:39.911Z,20.14
2023-05-11T10:55:39.874Z,20.18
2023-05-11T10:56:39.894Z,20.24
2023-05-11T10:57:39.891Z,20.28
2023-05-11T10:58:39.911Z,20.33
2023-05-11T10:59:39.849Z,20.37
2023-05-11T11:00:39.853Z,20.40
2023-05-11T11:01:39.914Z,20.42
2023-05-11T11:02:40.033Z,20.46
2023-05-11T11:03:39.855Z,20.50
2023-05-11T11:04:39.839Z,20.52
2023-05-11T11:05:39.833Z,20.55
2023-05-11T11:06:39.804Z,20.58
2023-05-11T11:07:39.924Z,20.60
2023-05-11T11:08:39.794Z,20.62
2023-05-11T11:09:39.797Z,20.65
2023-05-11T11:10:39.817Z,20.67
2023-05-11T11:11:39.754Z,20.69
2023-05-11T11:12:39.937Z,20.71
2023-05-11T11:13:39.740Z,20.73
2023-05-11T11:14:39.752Z,20.73
2023-05-11T11:15:39.764Z,20.75
2023-05-11T11:16:39.787Z,20.76
2023-05-11T11:17:39.946Z,20.78
2023-05-11T11:18:39.784Z,20.80
2023-05-11T11:19:39.751Z,20.82
2023-05-11T11:20:39.703Z,20.83
2023-05-11T11:21:39.696Z,20.84
2023-05-11T11:22:39.967Z,20.86
2023-05-11T11:23:39.709Z,20.86
2023-05-11T11:24:39.660Z,20.87
2023-05-11T11:25:39.686Z,20.89
2023-05-11T11:26:39.680Z,20.90
2023-05-11T11:27:39.996Z,20.90
2023-05-11T11:28:39.665Z,20.91
2023-05-11T11:29:39.636Z,20.93
2023-05-11T11:30:39.641Z,20.93
2023-05-11T11:31:39.679Z,20.94
2023-05-11T11:32:39.965Z,20.94
2023-05-11T11:33:39.619Z,20.96
2023-05-11T11:34:39.640Z,20.97
2023-05-11T11:35:39.641Z,20.97
2023-05-11T11:36:39.612Z,20.98
2023-05-11T11:37:39.923Z,20.99
2023-05-11T11:38:39.598Z,20.98
2023-05-11T11:39:39.596Z,21.00
2023-05-11T11:40:49.926Z,21.00
2023-05-11T11:41:40.644Z,21.01
2023-05-11T11:42:39.694Z,21.02
2023-05-11T11:43:39.643Z,21.02
2023-05-11T11:44:39.609Z,21.03
2023-05-11T11:45:39.571Z,21.04
2023-05-11T11:46:39.626Z,21.05
2023-05-11T11:47:39.613Z,21.05
2023-05-11T11:48:39.559Z,21.06
2023-05-11T11:49:39.569Z,21.06
2023-05-11T11:50:39.576Z,21.07
2023-05-11T11:51:39.580Z,21.07
2023-05-11T11:52:39.602Z,21.08
2023-05-11T11:53:39.665Z,21.08
2023-05-11T11:54:39.713Z,21.08
2023-05-11T11:55:39.754Z,21.09
2023-05-11T11:56:39.754Z,21.10
2023-05-11T11:57:39.956Z,21.10
2023-05-11T11:58:39.834Z,21.11
2023-05-11T11:59:39.862Z,21.11
2023-05-11T12:00:39.860Z,21.11
2023-05-11T12:01:39.928Z,21.11
2023-05-11T12:02:40.523Z,21.12
2023-05-11T12:03:40.089Z,21.11
2023-05-11T12:04:40.033Z,21.11
2023-05-11T12:05:40.026Z,21.12
2023-05-11T12:06:40.088Z,21.13
2023-05-11T12:07:40.440Z,21.13
2023-05-11T12:08:40.134Z,21.13
2023-05-11T12:09:40.188Z,21.14
2023-05-11T12:10:40.229Z,21.14
2023-05-11T12:11:40.255Z,21.15
2023-05-11T12:12:40.462Z,21.15
2023-05-11T12:13:40.311Z,21.15
2023-05-11T12:14:40.338Z,21.15
2023-05-11T12:15:40.347Z,21.16
2023-05-11T12:16:40.413Z,21.16
2023-05-11T12:17:40.443Z,21.17
2023-05-11T12:18:40.485Z,21.17
2023-05-11T12:19:40.445Z,21.17
2023-05-11T12:20:40.502Z,21.17
2023-05-11T12:21:40.538Z,21.18
2023-05-11T12:22:40.937Z,21.18
2023-05-11T12:23:40.591Z,21.18
2023-05-11T12:24:40.626Z,21.18
2023-05-11T12:25:40.643Z,21.19
2023-05-11T12:26:40.671Z,21.18
2023-05-11T12:27:40.719Z,21.19
2023-05-11T12:28:40.726Z,21.19
2023-05-11T12:29:40.842Z,21.20
2023-05-11T12:30:40.763Z,21.20
2023-05-11T12:31:40.807Z,21.20
2023-05-11T12:32:40.964Z,21.21
2023-05-11T12:33:40.820Z,21.21
2023-05-11T12:34:40.878Z,21.21
2023-05-11T12:35:40.907Z,21.21
2023-05-11T12:36:40.941Z,21.21
2023-05-11T12:37:40.962Z,21.22
2023-05-11T12:38:41.087Z,21.22
2023-05-11T12:39:41.024Z,21.21
2023-05-11T12:40:41.017Z,21.21
2023-05-11T12:41:41.044Z,21.21
2023-05-11T12:42:41.487Z,21.22
2023-05-11T12:43:41.070Z,21.22
2023-05-11T12:44:41.146Z,21.22
2023-05-11T12:45:41.153Z,21.22
2023-05-11T12:46:41.242Z,21.22
2023-05-11T12:47:41.177Z,21.22
2023-05-11T12:48:41.185Z,21.22
2023-05-11T12:49:41.217Z,21.23
2023-05-11T12:50:41.209Z,21.23
2023-05-11T12:51:41.239Z,21.24
2023-05-11T12:52:41.468Z,21.23
2023-05-11T12:53:41.375Z,21.24
2023-05-11T12:54:41.348Z,21.24